sensor_id;sensor_type;location;lat;lon;timestamp;P1;durP1;ratioP1;P2;durP2;ratioP2
81006;SDS011;70472;47.592;17.640;2024-01-11T00:00:22;32.43;;;32.37;;
81006;SDS011;70472;47.592;17.640;2024-01-11T00:00:54;31.70;;;31.43;;
81006;SDS011;70472;47.592;17.640;2024-01-11T00:01:26;31.33;;;30.93;;
81006;SDS011;70472;47.592;17.640;2024-01-11T00:01:59;32.33;;;31.70;;
81006;SDS011;70472;47.592;17.640;2024-01-11T00:02:31;34.27;;;34.03;;
81006;SDS011;70472;47.592;17.640;2024-01-11T00:03:04;35.23;;;34.70;;
81006;SDS011;70472;47.592;17.640;2024-01-11T00:03:36;34.43;;;33.57;;
81006;SDS011;70472;47.592;17.640;2024-01-11T00:04:09;34.70;;;33.60;;
81006;SDS011;70472;47.592;17.640;2024-01-11T00:04:41;34.53;;;33.67;;
81006;SDS011;70472;47.592;17.640;2024-01-11T00:05:14;32.27;;;32.23;;
81006;SDS011;70472;47.592;17.640;2024-01-11T00:05:46;34.93;;;34.70;;
81006;SDS011;70472;47.592;17.640;2024-01-11T00:06:19;34.07;;;33.30;;
81006;SDS011;70472;47.592;17.640;2024-01-11T00:06:51;33.60;;;33.23;;
81006;SDS011;70472;47.592;17.640;2024-01-11T00:07:23;33.17;;;32.97;;
81006;SDS011;70472;47.592;17.640;2024-01-11T00:07:56;33.37;;;32.60;;
81006;SDS011;70472;47.592;17.640;2024-01-11T00:08:28;34.80;;;33.77;;
81006;SDS011;70472;47.592;17.640;2024-01-11T00:09:01;34.80;;;33.90;;
81006;SDS011;70472;47.592;17.640;2024-01-11T00:09:34;33.67;;;33.33;;
81006;SDS011;70472;47.592;17.640;2024-01-11T00:10:11;33.50;;;32.70;;
81006;SDS011;70472;47.592;17.640;2024-01-11T00:10:44;33.23;;;32.17;;
81006;SDS011;70472;47.592;17.640;2024-01-11T00:11:17;33.60;;;33.27;;
81006;SDS011;70472;47.592;17.640;2024-01-11T00:11:49;32.50;;;31.67;;
81006;SDS011;70472;47.592;17.640;2024-01-11T00:12:21;32.83;;;32.03;;
81006;SDS011;70472;47.592;17.640;2024-01-11T00:12:54;32.67;;;32.53;;
81006;SDS011;70472;47.592;17.640;2024-01-11T00:13:26;33.50;;;32.83;;
81006;SDS011;70472;47.592;17.640;2024-01-11T00:13:59;32.70;;;31.77;;
81006;SDS011;70472;47.592;17.640;2024-01-11T00:14:31;34.93;;;34.03;;
81006;SDS011;70472;47.592;17.640;2024-01-11T00:15:04;32.97;;;32.93;;
81006;SDS011;70472;47.592;17.640;2024-01-11T00:15:36;33.47;;;32.87;;
81006;SDS011;70472;47.592;17.640;2024-01-11T00:16:09;34.10;;;33.17;;
81006;SDS011;70472;47.592;17.640;2024-01-11T00:16:41;32.77;;;32.43;;
81006;SDS011;70472;47.592;17.640;2024-01-11T00:17:14;33.80;;;33.33;;
81006;SDS011;70472;47.592;17.640;2024-01-11T00:17:46;33.33;;;32.53;;
81006;SDS011;70472;47.592;17.640;2024-01-11T00:18:19;33.87;;;32.80;;
81006;SDS011;70472;47.592;17.640;2024-01-11T00:18:51;33.33;;;32.40;;
81006;SDS011;70472;47.592;17.640;2024-01-11T00:19:24;31.97;;;31.70;;
81006;SDS011;70472;47.592;17.640;2024-01-11T00:19:56;33.77;;;33.27;;
81006;SDS011;70472;47.592;17.640;2024-01-11T00:20:29;32.60;;;31.80;;
81006;SDS011;70472;47.592;17.640;2024-01-11T00:21:01;32.07;;;31.13;;
81006;SDS011;70472;47.592;17.640;2024-01-11T00:21:33;33.40;;;32.40;;
81006;SDS011;70472;47.592;17.640;2024-01-11T00:22:07;32.30;;;31.30;;
81006;SDS011;70472;47.592;17.640;2024-01-11T00:22:39;31.70;;;31.13;;
81006;SDS011;70472;47.592;17.640;2024-01-11T00:23:11;32.03;;;31.73;;
81006;SDS011;70472;47.592;17.640;2024-01-11T00:23:44;32.63;;;32.30;;
81006;SDS011;70472;47.592;17.640;2024-01-11T00:24:16;31.90;;;31.47;;
81006;SDS011;70472;47.592;17.640;2024-01-11T00:24:49;32.40;;;32.33;;
81006;SDS011;70472;47.592;17.640;2024-01-11T00:25:21;32.60;;;32.43;;
81006;SDS011;70472;47.592;17.640;2024-01-11T00:25:53;34.13;;;33.27;;
81006;SDS011;70472;47.592;17.640;2024-01-11T00:26:26;33.33;;;32.23;;
81006;SDS011;70472;47.592;17.640;2024-01-11T00:26:58;32.90;;;31.67;;
81006;SDS011;70472;47.592;17.640;2024-01-11T00:27:31;33.37;;;32.13;;
81006;SDS011;70472;47.592;17.640;2024-01-11T00:28:03;32.83;;;32.17;;
81006;SDS011;70472;47.592;17.640;2024-01-11T00:28:36;33.80;;;33.23;;
81006;SDS011;70472;47.592;17.640;2024-01-11T00:29:08;32.57;;;32.07;;
81006;SDS011;70472;47.592;17.640;2024-01-11T00:29:40;32.37;;;32.27;;
81006;SDS011;70472;47.592;17.640;2024-01-11T00:30:13;33.40;;;32.50;;
81006;SDS011;70472;47.592;17.640;2024-01-11T00:30:45;32.43;;;31.30;;
81006;SDS011;70472;47.592;17.640;2024-01-11T00:31:18;32.17;;;31.20;;
81006;SDS011;70472;47.592;17.640;2024-01-11T00:31:50;32.33;;;31.63;;
81006;SDS011;70472;47.592;17.640;2024-01-11T00:32:23;30.83;;;30.77;;
81006;SDS011;70472;47.592;17.640;2024-01-11T00:32:55;32.10;;;31.33;;
81006;SDS011;70472;47.592;17.640;2024-01-11T00:33:28;31.57;;;30.80;;
81006;SDS011;70472;47.592;17.640;2024-01-11T00:34:00;31.77;;;31.13;;
81006;SDS011;70472;47.592;17.640;2024-01-11T00:34:33;32.90;;;32.50;;
81006;SDS011;70472;47.592;17.640;2024-01-11T00:35:05;32.90;;;31.87;;
81006;SDS011;70472;47.592;17.640;2024-01-11T00:35:38;34.57;;;33.27;;
81006;SDS011;70472;47.592;17.640;2024-01-11T00:36:10;32.80;;;31.97;;
81006;SDS011;70472;47.592;17.640;2024-01-11T00:36:48;32.90;;;31.93;;
81006;SDS011;70472;47.592;17.640;2024-01-11T00:37:20;31.90;;;31.53;;
81006;SDS011;70472;47.592;17.640;2024-01-11T00:37:53;33.30;;;33.13;;
81006;SDS011;70472;47.592;17.640;2024-01-11T00:38:25;34.87;;;33.90;;
81006;SDS011;70472;47.592;17.640;2024-01-11T00:38:58;33.23;;;32.73;;
81006;SDS011;70472;47.592;17.640;2024-01-11T00:39:30;33.30;;;32.43;;
81006;SDS011;70472;47.592;17.640;2024-01-11T00:40:03;34.17;;;33.23;;
81006;SDS011;70472;47.592;17.640;2024-01-11T00:40:36;33.00;;;31.87;;
81006;SDS011;70472;47.592;17.640;2024-01-11T00:41:08;32.30;;;31.20;;
81006;SDS011;70472;47.592;17.640;2024-01-11T00:41:41;31.33;;;30.77;;
81006;SDS011;70472;47.592;17.640;2024-01-11T00:42:13;32.30;;;32.10;;
81006;SDS011;70472;47.592;17.640;2024-01-11T00:42:45;32.87;;;32.57;;
81006;SDS011;70472;47.592;17.640;2024-01-11T00:43:18;32.87;;;31.97;;
81006;SDS011;70472;47.592;17.640;2024-01-11T00:43:50;33.30;;;32.43;;
81006;SDS011;70472;47.592;17.640;2024-01-11T00:44:23;32.47;;;32.23;;
81006;SDS011;70472;47.592;17.640;2024-01-11T00:44:55;31.83;;;31.83;;
81006;SDS011;70472;47.592;17.640;2024-01-11T00:45:27;32.50;;;32.17;;
81006;SDS011;70472;47.592;17.640;2024-01-11T00:46:00;33.87;;;32.93;;
81006;SDS011;70472;47.592;17.640;2024-01-11T00:46:33;33.77;;;33.33;;
81006;SDS011;70472;47.592;17.640;2024-01-11T00:47:06;32.13;;;31.73;;
81006;SDS011;70472;47.592;17.640;2024-01-11T00:47:38;33.13;;;32.30;;
81006;SDS011;70472;47.592;17.640;2024-01-11T00:48:11;33.57;;;32.70;;
81006;SDS011;70472;47.592;17.640;2024-01-11T00:48:44;33.07;;;32.80;;
81006;SDS011;70472;47.592;17.640;2024-01-11T00:49:17;32.90;;;32.53;;
81006;SDS011;70472;47.592;17.640;2024-01-11T00:49:49;32.70;;;31.80;;
81006;SDS011;70472;47.592;17.640;2024-01-11T00:50:22;34.53;;;33.57;;
81006;SDS011;70472;47.592;17.640;2024-01-11T00:50:54;33.73;;;32.70;;
81006;SDS011;70472;47.592;17.640;2024-01-11T00:51:26;33.20;;;32.30;;
81006;SDS011;70472;47.592;17.640;2024-01-11T00:51:59;31.23;;;30.63;;
81006;SDS011;70472;47.592;17.640;2024-01-11T00:52:31;33.87;;;32.70;;
81006;SDS011;70472;47.592;17.640;2024-01-11T00:53:04;34.03;;;32.77;;
81006;SDS011;70472;47.592;17.640;2024-01-11T00:53:36;32.73;;;32.33;;
81006;SDS011;70472;47.592;17.640;2024-01-11T00:54:09;31.93;;;31.67;;
81006;SDS011;70472;47.592;17.640;2024-01-11T00:54:41;32.00;;;31.03;;
81006;SDS011;70472;47.592;17.640;2024-01-11T00:55:13;33.50;;;32.30;;
81006;SDS011;70472;47.592;17.640;2024-01-11T00:55:46;34.07;;;32.77;;
81006;SDS011;70472;47.592;17.640;2024-01-11T00:56:18;34.03;;;32.83;;
81006;SDS011;70472;47.592;17.640;2024-01-11T00:56:51;33.57;;;32.43;;
81006;SDS011;70472;47.592;17.640;2024-01-11T00:57:24;32.73;;;32.53;;
81006;SDS011;70472;47.592;17.640;2024-01-11T00:57:56;32.73;;;32.60;;
81006;SDS011;70472;47.592;17.640;2024-01-11T00:58:29;34.30;;;34.10;;
81006;SDS011;70472;47.592;17.640;2024-01-11T00:59:01;34.10;;;33.80;;
81006;SDS011;70472;47.592;17.640;2024-01-11T00:59:34;33.97;;;33.03;;
81006;SDS011;70472;47.592;17.640;2024-01-11T01:00:07;33.57;;;32.50;;
81006;SDS011;70472;47.592;17.640;2024-01-11T01:00:41;34.30;;;33.13;;
81006;SDS011;70472;47.592;17.640;2024-01-11T01:01:13;34.40;;;33.30;;
81006;SDS011;70472;47.592;17.640;2024-01-11T01:01:47;34.20;;;33.10;;
81006;SDS011;70472;47.592;17.640;2024-01-11T01:02:22;33.50;;;32.33;;
81006;SDS011;70472;47.592;17.640;2024-01-11T01:02:55;32.77;;;31.53;;
81006;SDS011;70472;47.592;17.640;2024-01-11T01:03:27;34.30;;;32.83;;
81006;SDS011;70472;47.592;17.640;2024-01-11T01:04:00;36.43;;;34.93;;
81006;SDS011;70472;47.592;17.640;2024-01-11T01:04:32;34.70;;;33.20;;
81006;SDS011;70472;47.592;17.640;2024-01-11T01:05:04;36.23;;;34.60;;
81006;SDS011;70472;47.592;17.640;2024-01-11T01:05:37;34.53;;;33.10;;
81006;SDS011;70472;47.592;17.640;2024-01-11T01:06:10;33.17;;;32.47;;
81006;SDS011;70472;47.592;17.640;2024-01-11T01:06:42;34.50;;;33.37;;
81006;SDS011;70472;47.592;17.640;2024-01-11T01:07:15;35.03;;;33.80;;
81006;SDS011;70472;47.592;17.640;2024-01-11T01:07:47;35.10;;;33.87;;
81006;SDS011;70472;47.592;17.640;2024-01-11T01:08:20;34.37;;;33.30;;
81006;SDS011;70472;47.592;17.640;2024-01-11T01:08:53;34.13;;;32.97;;
81006;SDS011;70472;47.592;17.640;2024-01-11T01:09:27;33.77;;;32.77;;
81006;SDS011;70472;47.592;17.640;2024-01-11T01:09:59;33.70;;;32.87;;
81006;SDS011;70472;47.592;17.640;2024-01-11T01:10:31;33.83;;;32.83;;
81006;SDS011;70472;47.592;17.640;2024-01-11T01:11:04;33.50;;;32.53;;
81006;SDS011;70472;47.592;17.640;2024-01-11T01:11:36;33.30;;;32.27;;
81006;SDS011;70472;47.592;17.640;2024-01-11T01:12:08;34.50;;;33.37;;
81006;SDS011;70472;47.592;17.640;2024-01-11T01:12:41;33.63;;;32.80;;
81006;SDS011;70472;47.592;17.640;2024-01-11T01:13:13;32.70;;;31.67;;
81006;SDS011;70472;47.592;17.640;2024-01-11T01:13:45;31.57;;;30.93;;
81006;SDS011;70472;47.592;17.640;2024-01-11T01:14:18;32.00;;;31.73;;
81006;SDS011;70472;47.592;17.640;2024-01-11T01:14:51;34.00;;;33.27;;
81006;SDS011;70472;47.592;17.640;2024-01-11T01:15:23;34.30;;;33.27;;
81006;SDS011;70472;47.592;17.640;2024-01-11T01:15:55;33.27;;;32.03;;
81006;SDS011;70472;47.592;17.640;2024-01-11T01:16:28;32.47;;;31.17;;
81006;SDS011;70472;47.592;17.640;2024-01-11T01:17:00;34.00;;;32.80;;
81006;SDS011;70472;47.592;17.640;2024-01-11T01:17:33;35.30;;;34.07;;
81006;SDS011;70472;47.592;17.640;2024-01-11T01:18:05;33.63;;;32.53;;
81006;SDS011;70472;47.592;17.640;2024-01-11T01:18:37;32.70;;;31.47;;
81006;SDS011;70472;47.592;17.640;2024-01-11T01:19:10;31.33;;;30.07;;
81006;SDS011;70472;47.592;17.640;2024-01-11T01:19:43;32.90;;;31.43;;
81006;SDS011;70472;47.592;17.640;2024-01-11T01:20:16;33.67;;;32.13;;
81006;SDS011;70472;47.592;17.640;2024-01-11T01:20:48;32.33;;;31.20;;
81006;SDS011;70472;47.592;17.640;2024-01-11T01:21:20;32.73;;;31.70;;
81006;SDS011;70472;47.592;17.640;2024-01-11T01:21:53;32.63;;;31.50;;
81006;SDS011;70472;47.592;17.640;2024-01-11T01:22:25;32.27;;;31.93;;
81006;SDS011;70472;47.592;17.640;2024-01-11T01:22:58;33.23;;;32.37;;
81006;SDS011;70472;47.592;17.640;2024-01-11T01:23:30;32.63;;;32.07;;
81006;SDS011;70472;47.592;17.640;2024-01-11T01:24:02;32.30;;;31.87;;
81006;SDS011;70472;47.592;17.640;2024-01-11T01:24:35;31.97;;;31.93;;
81006;SDS011;70472;47.592;17.640;2024-01-11T01:25:08;32.20;;;31.97;;
81006;SDS011;70472;47.592;17.640;2024-01-11T01:25:40;32.70;;;32.70;;
81006;SDS011;70472;47.592;17.640;2024-01-11T01:26:12;31.87;;;31.70;;
81006;SDS011;70472;47.592;17.640;2024-01-11T01:26:45;32.23;;;31.73;;
81006;SDS011;70472;47.592;17.640;2024-01-11T01:27:17;30.70;;;29.83;;
81006;SDS011;70472;47.592;17.640;2024-01-11T01:27:49;32.13;;;30.97;;
81006;SDS011;70472;47.592;17.640;2024-01-11T01:28:22;34.00;;;33.10;;
81006;SDS011;70472;47.592;17.640;2024-01-11T01:28:54;33.57;;;32.97;;
81006;SDS011;70472;47.592;17.640;2024-01-11T01:29:27;33.07;;;32.00;;
81006;SDS011;70472;47.592;17.640;2024-01-11T01:29:59;33.37;;;32.87;;
81006;SDS011;70472;47.592;17.640;2024-01-11T01:30:32;32.73;;;31.80;;
81006;SDS011;70472;47.592;17.640;2024-01-11T01:31:04;33.40;;;32.37;;
81006;SDS011;70472;47.592;17.640;2024-01-11T01:31:36;32.10;;;31.03;;
81006;SDS011;70472;47.592;17.640;2024-01-11T01:32:09;32.87;;;31.70;;
81006;SDS011;70472;47.592;17.640;2024-01-11T01:32:41;35.73;;;34.43;;
81006;SDS011;70472;47.592;17.640;2024-01-11T01:33:14;36.33;;;35.07;;
81006;SDS011;70472;47.592;17.640;2024-01-11T01:33:46;33.87;;;32.60;;
81006;SDS011;70472;47.592;17.640;2024-01-11T01:34:19;33.33;;;32.50;;
81006;SDS011;70472;47.592;17.640;2024-01-11T01:34:51;33.63;;;33.33;;
81006;SDS011;70472;47.592;17.640;2024-01-11T01:35:24;33.37;;;32.50;;
81006;SDS011;70472;47.592;17.640;2024-01-11T01:35:56;32.47;;;31.37;;
81006;SDS011;70472;47.592;17.640;2024-01-11T01:36:29;33.77;;;32.67;;
81006;SDS011;70472;47.592;17.640;2024-01-11T01:37:01;32.83;;;32.10;;
81006;SDS011;70472;47.592;17.640;2024-01-11T01:37:33;31.60;;;31.33;;
81006;SDS011;70472;47.592;17.640;2024-01-11T01:38:06;31.83;;;31.70;;
81006;SDS011;70472;47.592;17.640;2024-01-11T01:38:38;33.70;;;32.87;;
81006;SDS011;70472;47.592;17.640;2024-01-11T01:39:11;34.57;;;33.47;;
81006;SDS011;70472;47.592;17.640;2024-01-11T01:39:43;31.87;;;31.70;;
81006;SDS011;70472;47.592;17.640;2024-01-11T01:40:16;32.43;;;32.13;;
81006;SDS011;70472;47.592;17.640;2024-01-11T01:40:48;32.13;;;31.83;;
81006;SDS011;70472;47.592;17.640;2024-01-11T01:41:21;33.27;;;32.37;;
81006;SDS011;70472;47.592;17.640;2024-01-11T01:41:53;33.17;;;32.73;;
81006;SDS011;70472;47.592;17.640;2024-01-11T01:42:26;33.27;;;32.83;;
81006;SDS011;70472;47.592;17.640;2024-01-11T01:42:58;32.73;;;32.23;;
81006;SDS011;70472;47.592;17.640;2024-01-11T01:43:31;33.60;;;32.67;;
81006;SDS011;70472;47.592;17.640;2024-01-11T01:44:04;33.17;;;32.20;;
81006;SDS011;70472;47.592;17.640;2024-01-11T01:44:36;31.77;;;31.63;;
81006;SDS011;70472;47.592;17.640;2024-01-11T01:45:09;31.03;;;30.97;;
81006;SDS011;70472;47.592;17.640;2024-01-11T01:45:42;33.50;;;32.77;;
81006;SDS011;70472;47.592;17.640;2024-01-11T01:46:15;33.40;;;33.27;;
81006;SDS011;70472;47.592;17.640;2024-01-11T01:46:55;32.90;;;32.13;;
81006;SDS011;70472;47.592;17.640;2024-01-11T01:47:28;33.53;;;32.47;;
81006;SDS011;70472;47.592;17.640;2024-01-11T01:48:01;34.07;;;33.47;;
81006;SDS011;70472;47.592;17.640;2024-01-11T01:48:35;34.73;;;33.63;;
81006;SDS011;70472;47.592;17.640;2024-01-11T01:49:08;33.53;;;32.33;;
81006;SDS011;70472;47.592;17.640;2024-01-11T01:49:43;34.53;;;32.97;;
81006;SDS011;70472;47.592;17.640;2024-01-11T01:50:19;34.20;;;32.90;;
81006;SDS011;70472;47.592;17.640;2024-01-11T01:50:52;33.60;;;33.00;;
81006;SDS011;70472;47.592;17.640;2024-01-11T01:51:26;32.17;;;31.70;;
81006;SDS011;70472;47.592;17.640;2024-01-11T01:52:01;33.37;;;32.50;;
81006;SDS011;70472;47.592;17.640;2024-01-11T01:52:34;32.17;;;31.70;;
81006;SDS011;70472;47.592;17.640;2024-01-11T01:53:09;32.03;;;31.00;;
81006;SDS011;70472;47.592;17.640;2024-01-11T01:53:42;34.53;;;33.23;;
81006;SDS011;70472;47.592;17.640;2024-01-11T01:54:16;34.40;;;33.07;;
81006;SDS011;70472;47.592;17.640;2024-01-11T01:54:49;33.77;;;33.40;;
81006;SDS011;70472;47.592;17.640;2024-01-11T01:55:22;33.33;;;32.37;;
81006;SDS011;70472;47.592;17.640;2024-01-11T01:55:56;34.50;;;33.20;;
81006;SDS011;70472;47.592;17.640;2024-01-11T01:56:29;33.93;;;32.73;;
81006;SDS011;70472;47.592;17.640;2024-01-11T01:57:03;32.60;;;31.50;;
81006;SDS011;70472;47.592;17.640;2024-01-11T01:57:38;32.80;;;32.03;;
81006;SDS011;70472;47.592;17.640;2024-01-11T01:58:13;32.63;;;32.17;;
81006;SDS011;70472;47.592;17.640;2024-01-11T01:58:47;35.20;;;33.97;;
81006;SDS011;70472;47.592;17.640;2024-01-11T01:59:24;33.07;;;32.43;;
81006;SDS011;70472;47.592;17.640;2024-01-11T01:59:57;34.20;;;33.40;;
81006;SDS011;70472;47.592;17.640;2024-01-11T02:00:30;35.67;;;34.60;;
81006;SDS011;70472;47.592;17.640;2024-01-11T02:01:03;33.63;;;32.90;;
81006;SDS011;70472;47.592;17.640;2024-01-11T02:01:36;34.70;;;33.60;;
81006;SDS011;70472;47.592;17.640;2024-01-11T02:02:09;34.77;;;33.63;;
81006;SDS011;70472;47.592;17.640;2024-01-11T02:02:43;35.40;;;34.20;;
81006;SDS011;70472;47.592;17.640;2024-01-11T02:03:16;37.00;;;35.93;;
81006;SDS011;70472;47.592;17.640;2024-01-11T02:03:49;33.63;;;33.60;;
81006;SDS011;70472;47.592;17.640;2024-01-11T02:04:23;32.17;;;31.53;;
81006;SDS011;70472;47.592;17.640;2024-01-11T02:04:56;31.93;;;30.83;;
81006;SDS011;70472;47.592;17.640;2024-01-11T02:05:29;33.50;;;32.23;;
81006;SDS011;70472;47.592;17.640;2024-01-11T02:06:03;33.67;;;32.47;;
81006;SDS011;70472;47.592;17.640;2024-01-11T02:06:37;32.57;;;31.53;;
81006;SDS011;70472;47.592;17.640;2024-01-11T02:07:10;33.10;;;32.20;;
81006;SDS011;70472;47.592;17.640;2024-01-11T02:07:43;32.93;;;32.57;;
81006;SDS011;70472;47.592;17.640;2024-01-11T02:08:16;33.70;;;33.00;;
81006;SDS011;70472;47.592;17.640;2024-01-11T02:08:54;32.97;;;32.00;;
81006;SDS011;70472;47.592;17.640;2024-01-11T02:09:30;32.73;;;32.50;;
81006;SDS011;70472;47.592;17.640;2024-01-11T02:10:03;31.97;;;31.80;;
81006;SDS011;70472;47.592;17.640;2024-01-11T02:10:36;33.90;;;32.97;;
81006;SDS011;70472;47.592;17.640;2024-01-11T02:11:09;33.30;;;32.13;;
81006;SDS011;70472;47.592;17.640;2024-01-11T02:11:43;33.77;;;32.53;;
81006;SDS011;70472;47.592;17.640;2024-01-11T02:12:16;32.53;;;31.37;;
81006;SDS011;70472;47.592;17.640;2024-01-11T02:12:49;34.13;;;32.90;;
81006;SDS011;70472;47.592;17.640;2024-01-11T02:13:22;34.33;;;33.57;;
81006;SDS011;70472;47.592;17.640;2024-01-11T02:13:55;34.63;;;34.40;;
81006;SDS011;70472;47.592;17.640;2024-01-11T02:14:27;33.50;;;33.50;;
81006;SDS011;70472;47.592;17.640;2024-01-11T02:15:00;31.80;;;31.50;;
81006;SDS011;70472;47.592;17.640;2024-01-11T02:15:34;33.17;;;32.57;;
81006;SDS011;70472;47.592;17.640;2024-01-11T02:16:07;33.17;;;32.67;;
81006;SDS011;70472;47.592;17.640;2024-01-11T02:16:39;34.47;;;33.60;;
81006;SDS011;70472;47.592;17.640;2024-01-11T02:17:12;35.47;;;34.20;;
81006;SDS011;70472;47.592;17.640;2024-01-11T02:17:44;33.63;;;32.37;;
81006;SDS011;70472;47.592;17.640;2024-01-11T02:18:17;34.40;;;33.13;;
81006;SDS011;70472;47.592;17.640;2024-01-11T02:18:49;34.37;;;33.10;;
81006;SDS011;70472;47.592;17.640;2024-01-11T02:19:22;33.53;;;32.17;;
81006;SDS011;70472;47.592;17.640;2024-01-11T02:19:54;32.80;;;31.83;;
81006;SDS011;70472;47.592;17.640;2024-01-11T02:20:27;32.50;;;31.57;;
81006;SDS011;70472;47.592;17.640;2024-01-11T02:20:59;33.30;;;32.27;;
81006;SDS011;70472;47.592;17.640;2024-01-11T02:21:38;32.63;;;31.40;;
81006;SDS011;70472;47.592;17.640;2024-01-11T02:22:20;34.10;;;32.83;;
81006;SDS011;70472;47.592;17.640;2024-01-11T02:23:01;35.03;;;33.67;;
81006;SDS011;70472;47.592;17.640;2024-01-11T02:23:43;34.37;;;33.07;;
81006;SDS011;70472;47.592;17.640;2024-01-11T02:24:18;34.63;;;33.53;;
81006;SDS011;70472;47.592;17.640;2024-01-11T02:24:51;34.20;;;33.00;;
81006;SDS011;70472;47.592;17.640;2024-01-11T02:25:23;34.10;;;32.80;;
81006;SDS011;70472;47.592;17.640;2024-01-11T02:25:56;34.27;;;32.93;;
81006;SDS011;70472;47.592;17.640;2024-01-11T02:26:28;33.97;;;32.47;;
81006;SDS011;70472;47.592;17.640;2024-01-11T02:27:01;34.57;;;33.10;;
81006;SDS011;70472;47.592;17.640;2024-01-11T02:27:48;33.67;;;32.77;;
81006;SDS011;70472;47.592;17.640;2024-01-11T02:28:22;34.23;;;33.30;;
81006;SDS011;70472;47.592;17.640;2024-01-11T02:28:54;34.90;;;34.00;;
81006;SDS011;70472;47.592;17.640;2024-01-11T02:29:27;34.67;;;33.33;;
81006;SDS011;70472;47.592;17.640;2024-01-11T02:30:01;33.83;;;32.70;;
81006;SDS011;70472;47.592;17.640;2024-01-11T02:30:33;33.13;;;32.07;;
81006;SDS011;70472;47.592;17.640;2024-01-11T02:31:06;32.97;;;32.03;;
81006;SDS011;70472;47.592;17.640;2024-01-11T02:31:39;31.47;;;31.13;;
81006;SDS011;70472;47.592;17.640;2024-01-11T02:32:11;32.60;;;31.77;;
81006;SDS011;70472;47.592;17.640;2024-01-11T02:32:44;33.93;;;32.80;;
81006;SDS011;70472;47.592;17.640;2024-01-11T02:33:19;33.73;;;32.83;;
81006;SDS011;70472;47.592;17.640;2024-01-11T02:33:54;33.50;;;33.07;;
81006;SDS011;70472;47.592;17.640;2024-01-11T02:34:28;36.37;;;35.07;;
81006;SDS011;70472;47.592;17.640;2024-01-11T02:35:00;35.83;;;34.50;;
81006;SDS011;70472;47.592;17.640;2024-01-11T02:35:33;33.73;;;33.23;;
81006;SDS011;70472;47.592;17.640;2024-01-11T02:36:06;34.73;;;33.73;;
81006;SDS011;70472;47.592;17.640;2024-01-11T02:36:39;35.13;;;34.63;;
81006;SDS011;70472;47.592;17.640;2024-01-11T02:37:12;35.00;;;34.77;;
81006;SDS011;70472;47.592;17.640;2024-01-11T02:37:44;33.73;;;33.47;;
81006;SDS011;70472;47.592;17.640;2024-01-11T02:38:19;34.07;;;33.47;;
81006;SDS011;70472;47.592;17.640;2024-01-11T02:38:52;35.90;;;34.60;;
81006;SDS011;70472;47.592;17.640;2024-01-11T02:39:25;34.43;;;33.73;;
81006;SDS011;70472;47.592;17.640;2024-01-11T02:39:58;33.87;;;33.43;;
81006;SDS011;70472;47.592;17.640;2024-01-11T02:40:31;35.50;;;34.77;;
81006;SDS011;70472;47.592;17.640;2024-01-11T02:41:05;34.90;;;33.87;;
81006;SDS011;70472;47.592;17.640;2024-01-11T02:41:38;34.83;;;33.87;;
81006;SDS011;70472;47.592;17.640;2024-01-11T02:42:12;34.67;;;33.57;;
81006;SDS011;70472;47.592;17.640;2024-01-11T02:42:45;34.93;;;33.83;;
81006;SDS011;70472;47.592;17.640;2024-01-11T02:43:17;34.97;;;33.90;;
81006;SDS011;70472;47.592;17.640;2024-01-11T02:43:50;34.20;;;33.77;;
81006;SDS011;70472;47.592;17.640;2024-01-11T02:44:25;35.17;;;34.90;;
81006;SDS011;70472;47.592;17.640;2024-01-11T02:44:58;35.07;;;34.60;;
81006;SDS011;70472;47.592;17.640;2024-01-11T02:45:30;35.87;;;35.27;;
81006;SDS011;70472;47.592;17.640;2024-01-11T02:46:03;34.90;;;34.03;;
81006;SDS011;70472;47.592;17.640;2024-01-11T02:46:35;33.90;;;32.77;;
81006;SDS011;70472;47.592;17.640;2024-01-11T02:47:08;34.30;;;33.00;;
81006;SDS011;70472;47.592;17.640;2024-01-11T02:47:40;33.83;;;32.77;;
81006;SDS011;70472;47.592;17.640;2024-01-11T02:48:13;33.27;;;32.83;;
81006;SDS011;70472;47.592;17.640;2024-01-11T02:48:45;34.90;;;33.80;;
81006;SDS011;70472;47.592;17.640;2024-01-11T02:49:18;34.50;;;33.67;;
81006;SDS011;70472;47.592;17.640;2024-01-11T02:49:51;35.97;;;35.13;;
81006;SDS011;70472;47.592;17.640;2024-01-11T02:50:23;36.90;;;35.67;;
81006;SDS011;70472;47.592;17.640;2024-01-11T02:50:58;35.07;;;33.87;;
81006;SDS011;70472;47.592;17.640;2024-01-11T02:51:31;35.53;;;34.43;;
81006;SDS011;70472;47.592;17.640;2024-01-11T02:52:03;34.13;;;33.77;;
81006;SDS011;70472;47.592;17.640;2024-01-11T02:52:37;34.27;;;34.13;;
81006;SDS011;70472;47.592;17.640;2024-01-11T02:53:09;36.70;;;35.97;;
81006;SDS011;70472;47.592;17.640;2024-01-11T02:53:42;34.33;;;33.30;;
81006;SDS011;70472;47.592;17.640;2024-01-11T02:54:14;35.83;;;34.63;;
81006;SDS011;70472;47.592;17.640;2024-01-11T02:54:46;35.67;;;34.23;;
81006;SDS011;70472;47.592;17.640;2024-01-11T02:55:19;35.97;;;34.57;;
81006;SDS011;70472;47.592;17.640;2024-01-11T02:55:52;36.00;;;35.37;;
81006;SDS011;70472;47.592;17.640;2024-01-11T02:56:24;33.47;;;33.00;;
81006;SDS011;70472;47.592;17.640;2024-01-11T02:56:57;32.70;;;32.27;;
81006;SDS011;70472;47.592;17.640;2024-01-11T02:57:29;33.73;;;33.03;;
81006;SDS011;70472;47.592;17.640;2024-01-11T02:58:02;34.30;;;33.63;;
81006;SDS011;70472;47.592;17.640;2024-01-11T02:58:34;33.00;;;32.90;;
81006;SDS011;70472;47.592;17.640;2024-01-11T02:59:07;33.30;;;32.73;;
81006;SDS011;70472;47.592;17.640;2024-01-11T02:59:39;33.93;;;32.83;;
81006;SDS011;70472;47.592;17.640;2024-01-11T03:00:13;34.40;;;33.03;;
81006;SDS011;70472;47.592;17.640;2024-01-11T03:00:46;36.40;;;34.83;;
81006;SDS011;70472;47.592;17.640;2024-01-11T03:01:18;36.67;;;35.03;;
81006;SDS011;70472;47.592;17.640;2024-01-11T03:01:51;34.57;;;33.37;;
81006;SDS011;70472;47.592;17.640;2024-01-11T03:02:23;33.83;;;32.80;;
81006;SDS011;70472;47.592;17.640;2024-01-11T03:02:56;35.03;;;33.83;;
81006;SDS011;70472;47.592;17.640;2024-01-11T03:03:28;34.40;;;33.20;;
81006;SDS011;70472;47.592;17.640;2024-01-11T03:04:01;36.10;;;35.43;;
81006;SDS011;70472;47.592;17.640;2024-01-11T03:04:34;35.17;;;34.27;;
81006;SDS011;70472;47.592;17.640;2024-01-11T03:05:06;35.67;;;34.57;;
81006;SDS011;70472;47.592;17.640;2024-01-11T03:05:38;34.57;;;34.17;;
81006;SDS011;70472;47.592;17.640;2024-01-11T03:06:11;34.57;;;33.63;;
81006;SDS011;70472;47.592;17.640;2024-01-11T03:06:43;35.60;;;34.87;;
81006;SDS011;70472;47.592;17.640;2024-01-11T03:07:16;37.60;;;36.43;;
81006;SDS011;70472;47.592;17.640;2024-01-11T03:07:48;35.40;;;34.13;;
81006;SDS011;70472;47.592;17.640;2024-01-11T03:08:21;35.93;;;34.63;;
81006;SDS011;70472;47.592;17.640;2024-01-11T03:08:53;36.63;;;35.20;;
81006;SDS011;70472;47.592;17.640;2024-01-11T03:09:26;36.23;;;34.87;;
81006;SDS011;70472;47.592;17.640;2024-01-11T03:09:58;36.63;;;34.93;;